Time;durP1;ratioP1;P1;durP2;ratioP2;P2;SDS_P1;SDS_P2;PMS_P1;PMS_P2;Temp;Humidity;BMP_temperature;BMP_pressure;BME280_temperature;BME280_humidity;BME280_pressure;Samples;Min_cycle;Max_cycle;Signal;HPM_P1;HPM_P2
2022/06/20 00:00:13;;;;;;;1.08;0.98;;;;;;;26.11;39.52;101462.03;4198956;28;20114;-73
2022/06/20 00:02:23;;;;;;;1.20;1.10;;;;;;;26.07;39.71;101456.22;4200789;28;20491;-73
2022/06/20 00:04:24;;;;;;;1.38;1.23;;;;;;;26.09;39.56;101475.53;4199448;28;20045;-73
2022/06/20 00:06:26;;;;;;;1.65;1.15;;;;;;;26.09;39.52;101469.91;4200213;28;20048;-73
2022/06/20 00:08:27;;;;;;;1.20;1.10;;;;;;;26.06;39.47;101474.16;4199380;28;20036;-73
2022/06/20 00:10:32;;;;;;;1.77;1.30;;;;;;;26.08;39.45;101473.88;4198228;28;20495;-73
2022/06/20 00:12:34;;;;;;;1.13;1.02;;;;;;;26.02;39.40;101470.28;4199848;28;20154;-74
2022/06/20 00:14:35;;;;;;;1.40;1.30;;;;;;;26.10;39.76;101488.41;4200273;28;20086;-73
2022/06/20 00:16:39;;;;;;;1.23;1.13;;;;;;;26.10;39.67;101494.03;4200435;28;20045;-74
2022/06/20 00:18:44;;;;;;;1.40;1.20;;;;;;;26.09;39.80;101486.75;4199837;28;20048;-72
2022/06/20 00:20:46;;;;;;;1.25;1.15;;;;;;;26.04;39.39;101479.25;4199665;28;20056;-73
2022/06/20 00:22:47;;;;;;;1.63;1.30;;;;;;;26.06;39.48;101490.16;4199101;28;20098;-75
2022/06/20 00:24:49;;;;;;;1.23;1.10;;;;;;;26.09;39.45;101492.34;4199546;28;20070;-72
2022/06/20 00:26:50;;;;;;;1.58;1.10;;;;;;;26.09;39.79;101495.16;4199545;28;20037;-72
2022/06/20 00:28:51;;;;;;;1.50;1.30;;;;;;;26.09;39.79;101506.38;4199096;28;20037;-72
2022/06/20 00:30:56;;;;;;;1.50;1.10;;;;;;;26.09;39.64;101515.63;4199626;28;20106;-72
2022/06/20 00:32:57;;;;;;;1.20;1.10;;;;;;;26.06;39.67;101501.38;4199738;28;20070;-72
2022/06/20 00:35:02;;;;;;;1.50;1.35;;;;;;;26.08;39.82;101513.97;4200621;28;20285;-72
2022/06/20 00:37:11;;;;;;;1.63;1.52;;;;;;;25.99;39.59;101504.56;4198742;28;20458;-72
2022/06/20 00:39:21;;;;;;;1.50;1.40;;;;;;;26.09;39.58;101520.41;4199046;28;20546;-72
2022/06/20 00:41:34;;;;;;;1.80;1.42;;;;;;;26.07;39.52;101528.28;4199224;28;20094;-73
2022/06/20 00:43:41;;;;;;;0.93;0.90;;;;;;;26.03;39.55;101527.22;4198975;28;20090;-72
2022/06/20 00:45:49;;;;;;;1.70;1.50;;;;;;;26.07;39.40;101534.75;4199096;28;20472;-73
2022/06/20 00:47:53;;;;;;;2.30;1.60;;;;;;;26.07;39.73;101536.69;4198523;28;20098;-73
2022/06/20 00:50:05;;;;;;;1.65;1.20;;;;;;;26.06;39.74;101544.28;4199201;28;20036;-73
2022/06/20 00:52:23;;;;;;;1.75;1.30;;;;;;;26.06;39.64;101549.03;4197491;28;20040;-72
2022/06/20 00:54:49;;;;;;;1.35;1.25;;;;;;;26.07;39.63;101556.31;4198667;28;20040;-72
2022/06/20 00:57:06;;;;;;;;;;;;;;;26.05;39.38;101553.81;4199243;28;20036;-72
2022/06/20 00:59:14;;;;;;;1.40;1.30;;;;;;;26.10;39.64;101547.31;4198468;28;19917;-72
2022/06/20 01:01:20;;;;;;;1.58;1.30;;;;;;;26.11;39.19;101557.38;4198452;28;20097;-72
2022/06/20 01:03:24;;;;;;;1.70;1.40;;;;;;;26.09;39.22;101556.88;4199107;28;20086;-72
2022/06/20 01:05:35;;;;;;;1.58;1.33;;;;;;;26.07;39.20;101553.50;4199164;28;20040;-72
2022/06/20 01:07:52;;;;;;;1.50;1.40;;;;;;;26.08;39.41;101563.63;4198867;28;20037;-72
2022/06/20 01:09:58;;;;;;;1.20;1.02;;;;;;;25.98;39.64;101563.72;4198712;28;20423;-73
2022/06/20 01:12:03;;;;;;;1.77;1.60;;;;;;;26.00;39.30;101556.69;4198693;28;20037;-73
2022/06/20 01:14:26;;;;;;;2.38;1.50;;;;;;;26.04;39.57;101576.56;4199048;28;20044;-72
2022/06/20 01:16:31;;;;;;;1.30;1.20;;;;;;;26.05;39.31;101581.03;4198608;28;20040;-71
2022/06/20 01:18:33;;;;;;;;;;;;;;;26.03;39.27;101572.09;4199195;28;20086;-72
2022/06/20 01:20:36;;;;;;;1.88;1.42;;;;;;;26.08;39.17;101581.28;4198268;28;20112;-72
2022/06/20 01:23:04;;;;;;;1.90;1.48;;;;;;;26.07;39.21;101584.38;4198978;28;20043;-73
2022/06/20 01:25:26;;;;;;;1.58;1.48;;;;;;;26.06;39.02;101583.53;4198744;28;20098;-72
2022/06/20 01:27:39;;;;;;;2.38;1.73;;;;;;;26.01;39.31;101585.56;4198058;28;20044;-72
2022/06/20 01:29:41;;;;;;;1.80;1.65;;;;;;;26.05;39.21;101595.06;4198332;28;20036;-72
2022/06/20 01:31:47;;;;;;;2.42;1.88;;;;;;;25.96;39.30;101588.44;4196940;28;20527;-72
2022/06/20 01:33:49;;;;;;;1.48;1.35;;;;;;;26.02;39.48;101615.28;4198650;28;20484;-73
2022/06/20 01:38:21;;;;;;;2.13;1.92;;;;;;;26.03;39.22;101631.00;4199616;28;20097;-72
2022/06/20 01:40:22;;;;;;;2.88;2.13;;;;;;;26.03;39.20;101636.63;4197795;28;20040;-72
2022/06/20 01:42:24;;;;;;;1.83;1.50;;;;;;;26.02;39.27;101637.72;4198146;28;20487;-72
2022/06/20 01:44:26;;;;;;;1.58;1.48;;;;;;;26.00;39.54;101640.00;4197829;28;20087;-72
2022/06/20 01:46:30;;;;;;;2.45;2.05;;;;;;;25.96;39.29;101644.53;4198248;28;20090;-72
2022/06/20 01:48:36;;;;;;;2.05;1.85;;;;;;;26.02;39.67;101648.94;4197932;28;20033;-72
2022/06/20 01:50:45;;;;;;;2.15;1.80;;;;;;;26.02;39.25;101655.38;4198229;28;20110;-72
2022/06/20 01:52:46;;;;;;;1.67;1.48;;;;;;;26.02;39.51;101657.34;4197993;28;20446;-72
2022/06/20 01:54:53;;;;;;;1.90;1.70;;;;;;;26.02;39.50;101662.97;4198434;28;20037;-72
2022/06/20 01:56:57;;;;;;;2.10;1.70;;;;;;;26.03;39.54;101665.50;4198091;28;20029;-72
2022/06/20 01:59:13;;;;;;;2.35;1.98;;;;;;;26.03;39.41;101664.66;4198105;28;20040;-72
2022/06/20 02:01:17;;;;;;;1.80;1.63;;;;;;;25.99;39.27;101660.78;4198326;28;20200;-72
2022/06/20 02:03:21;;;;;;;2.15;1.73;;;;;;;26.03;39.50;101673.06;4197963;28;20074;-72
2022/06/20 02:05:27;;;;;;;2.00;1.73;;;;;;;26.04;39.51;101685.94;4197910;28;20037;-71
2022/06/20 02:07:44;;;;;;;2.30;1.77;;;;;;;26.03;39.50;101685.13;4198070;28;20044;-72
2022/06/20 02:09:45;;;;;;;1.80;1.52;;;;;;;26.03;39.25;101681.47;4197708;28;20097;-73
2022/06/20 02:11:48;;;;;;;2.17;1.77;;;;;;;26.02;39.56;101689.03;4197117;28;20032;-72
2022/06/20 02:13:52;;;;;;;1.50;1.40;;;;;;;26.03;39.39;101687.09;4195985;28;20458;-72
2022/06/20 02:16:01;;;;;;;2.20;2.00;;;;;;;26.00;39.16;101688.50;4198155;28;20037;-73
2022/06/20 02:18:06;;;;;;;2.35;1.70;;;;;;;26.03;39.22;101689.91;4196881;28;20045;-71
2022/06/20 02:20:13;;;;;;;2.45;2.08;;;;;;;26.00;39.36;101696.09;4197970;28;20098;-72
2022/06/20 02:22:19;;;;;;;2.53;2.20;;;;;;;26.03;39.58;101706.72;4197758;28;20040;-72
2022/06/20 02:24:24;;;;;;;2.05;1.65;;;;;;;25.99;39.35;101706.47;4197749;28;20102;-72
2022/06/20 02:26:26;;;;;;;2.20;2.00;;;;;;;26.02;39.65;101716.25;4197825;28;20048;-72
2022/06/20 02:28:40;;;;;;;2.08;1.88;;;;;;;26.00;39.27;101715.72;4197743;28;20541;-72
2022/06/20 02:30:42;;;;;;;1.65;1.50;;;;;;;26.03;39.36;101723.56;4197898;28;20110;-71
2022/06/20 02:32:51;;;;;;;2.17;1.90;;;;;;;26.02;39.38;101721.84;4198027;28;20098;-72
2022/06/20 02:34:54;;;;;;;2.28;1.80;;;;;;;26.01;39.41;101721.03;4197505;28;20029;-72
2022/06/20 02:36:59;;;;;;;2.08;1.80;;;;;;;26.00;39.58;101729.75;4197678;28;20488;-73
2022/06/20 02:39:00;;;;;;;2.15;1.80;;;;;;;26.02;39.64;101727.47;4197704;28;20472;-72
2022/06/20 02:41:02;;;;;;;4.13;1.95;;;;;;;26.02;39.29;101738.69;4197503;28;20071;-72
2022/06/20 02:43:15;;;;;;;2.88;2.00;;;;;;;25.91;39.67;101720.31;4197618;28;20110;-73
2022/06/20 02:45:18;;;;;;;1.73;1.63;;;;;;;26.00;39.30;101735.34;4197700;28;20097;-72
2022/06/20 02:47:24;;;;;;;3.08;1.95;;;;;;;26.00;39.49;101740.97;4196680;28;20109;-72
2022/06/20 02:49:30;;;;;;;2.63;1.80;;;;;;;25.99;39.35;101745.75;4197792;28;20040;-72
2022/06/20 02:51:38;;;;;;;2.47;1.75;;;;;;;25.99;39.50;101750.50;4197047;28;20041;-72
2022/06/20 02:53:45;;;;;;;2.33;2.10;;;;;;;26.00;39.39;101746.56;4197844;28;20048;-72
2022/06/20 02:55:51;;;;;;;2.97;2.20;;;;;;;26.00;39.21;101757.78;4197965;28;20067;-73
2022/06/20 02:57:58;;;;;;;2.30;1.95;;;;;;;25.99;39.50;101751.34;4197189;28;20365;-72
2022/06/20 03:00:03;;;;;;;2.80;1.88;;;;;;;25.96;39.31;101745.50;4197769;28;20165;-72
2022/06/20 03:02:09;;;;;;;1.88;1.70;;;;;;;25.99;39.50;101756.13;4197744;28;20109;-72
2022/06/20 03:04:12;;;;;;;1.90;1.73;;;;;;;25.99;39.32;101762.56;4197961;28;20033;-72
2022/06/20 03:06:24;;;;;;;2.35;2.08;;;;;;;26.00;39.48;101774.63;4207194;28;20097;-72
2022/06/20 03:08:26;;;;;;;2.00;1.90;;;;;;;26.00;39.57;101771.81;4214299;28;20073;-72
2022/06/20 03:11:02;;;;;;;2.08;1.92;;;;;;;25.94;39.55;101768.22;4214157;28;20114;-72
2022/06/20 03:13:04;;;;;;;2.10;1.90;;;;;;;25.99;39.25;101778.56;4213957;28;20479;-72
2022/06/20 03:15:06;;;;;;;2.70;2.17;;;;;;;25.99;39.32;101785.00;4214233;28;20051;-72
2022/06/20 03:17:10;;;;;;;2.22;2.03;;;;;;;25.98;39.47;101793.69;4214524;28;20356;-73
2022/06/20 03:19:23;;;;;;;1.80;1.70;;;;;;;25.98;39.26;101810.50;4213845;28;20472;-72
2022/06/20 03:21:28;;;;;;;2.22;2.03;;;;;;;25.98;39.72;101811.38;4214394;28;20036;-72
2022/06/20 03:23:32;;;;;;;3.30;2.17;;;;;;;25.98;39.53;101817.00;4215165;28;20036;-72
2022/06/20 03:25:41;;;;;;;1.85;1.70;;;;;;;25.95;39.56;101823.19;4217520;28;20094;-72
2022/06/20 03:27:44;;;;;;;2.25;1.88;;;;;;;25.97;39.39;101822.88;4216929;28;20081;-72
2022/06/20 03:29:51;;;;;;;2.33;2.05;;;;;;;25.97;39.68;101828.47;4217301;28;20086;-72
2022/06/20 03:31:54;;;;;;;2.38;1.92;;;;;;;25.98;39.67;101827.34;4217575;28;20085;-72
2022/06/20 03:33:55;;;;;;;2.28;1.90;;;;;;;25.95;39.41;101822.34;4217836;28;20048;-73
2022/06/20 03:36:03;;;;;;;1.98;1.77;;;;;;;25.88;39.27;101811.44;4206899;28;20056;-73
2022/06/20 03:38:07;;;;;;;2.63;1.98;;;;;;;25.96;39.41;101830.44;4202867;28;20040;-73
2022/06/20 03:40:09;;;;;;;2.55;2.10;;;;;;;25.96;39.71;101836.06;4200834;28;20094;-73
2022/06/20 03:42:14;;;;;;;1.95;1.85;;;;;;;25.92;39.88;101831.34;4200986;28;20102;-73
2022/06/20 03:44:35;;;;;;;2.25;2.03;;;;;;;25.95;39.70;101839.16;4201503;28;20548;-72
2022/06/20 03:46:49;;;;;;;2.42;2.03;;;;;;;25.91;39.62;101822.09;4200527;28;20569;-72
2022/06/20 03:49:01;;;;;;;2.10;1.90;;;;;;;25.98;39.64;101844.16;4199848;28;20056;-73
2022/06/20 03:51:11;;;;;;;2.28;2.08;;;;;;;25.98;39.74;101861.00;4200922;28;20082;-71
2022/06/20 03:53:29;;;;;;;1.88;1.60;;;;;;;25.97;39.79;101873.34;4200083;28;20070;-73
2022/06/20 03:56:04;;;;;;;2.83;2.03;;;;;;;25.97;39.42;101864.94;4199645;28;20089;-73
2022/06/20 03:58:16;;;;;;;2.08;1.88;;;;;;;25.98;39.53;101866.59;4194671;28;20041;-72
2022/06/20 04:00:23;;;;;;;1.95;1.77;;;;;;;25.98;39.57;101863.81;4202129;28;20044;-72
2022/06/20 04:02:43;;;;;;;2.22;2.00;;;;;;;25.96;39.59;101852.88;4200455;28;20097;-72
2022/06/20 04:05:12;;;;;;;2.15;1.88;;;;;;;25.91;39.77;101849.31;4198811;28;20553;-72
2022/06/20 04:07:25;;;;;;;2.63;2.17;;;;;;;25.89;39.57;101852.41;4199932;28;20094;-72
2022/06/20 04:12:28;;;;;;;2.50;1.95;;;;;;;25.97;39.64;101877.00;4199807;28;20067;-71
2022/06/20 04:14:39;;;;;;;2.03;1.75;;;;;;;25.97;39.54;101887.38;4199467;28;20044;-72
2022/06/20 04:16:50;;;;;;;2.17;1.80;;;;;;;25.92;39.67;101864.97;4199036;28;20045;-72
2022/06/20 04:19:26;;;;;;;3.28;2.50;;;;;;;25.94;39.64;101869.19;4199534;28;20040;-71
2022/06/20 04:21:27;;;;;;;2.40;2.20;;;;;;;25.95;39.41;101868.06;4199741;28;20110;-72
2022/06/20 04:23:37;;;;;;;2.20;2.00;;;;;;;25.95;39.54;101872.81;4199501;28;20045;-73
2022/06/20 04:25:58;;;;;;;2.10;1.60;;;;;;;25.93;39.77;101880.69;4199441;28;20037;-73
2022/06/20 04:28:27;;;;;;;2.60;2.03;;;;;;;25.94;39.59;101876.75;4199029;28;20040;-72
2022/06/20 04:30:48;;;;;;;1.85;1.65;;;;;;;25.93;39.85;101880.69;4199166;28;20045;-72
2022/06/20 04:33:00;;;;;;;2.15;1.83;;;;;;;25.92;39.88;101864.97;4198923;28;20044;-72
2022/06/20 04:35:29;;;;;;;2.15;1.95;;;;;;;25.92;39.88;101873.41;4198977;28;20044;-71
2022/06/20 04:37:38;;;;;;;2.20;2.00;;;;;;;25.94;39.71;101876.75;4198639;28;20094;-72
2022/06/20 04:40:09;;;;;;;2.05;1.85;;;;;;;25.93;39.79;101875.06;4199597;28;20447;-71
2022/06/20 04:42:30;;;;;;;1.77;1.67;;;;;;;25.91;39.77;101869.75;4199552;28;20041;-72
2022/06/20 04:44:41;;;;;;;2.42;2.05;;;;;;;25.92;39.86;101873.41;4199209;28;20488;-72
2022/06/20 04:46:55;;;;;;;2.58;2.08;;;;;;;25.91;39.62;101866.97;4199264;28;20439;-71
2022/06/20 04:48:56;;;;;;;2.20;1.98;;;;;;;25.83;39.73;101860.00;4199655;28;20036;-72
2022/06/20 04:51:02;;;;;;;1.90;1.80;;;;;;;25.92;39.70;101859.38;4198962;28;20044;-73
2022/06/20 04:53:08;;;;;;;1.95;1.75;;;;;;;25.91;39.65;101869.75;4198288;28;20089;-73
2022/06/20 04:55:24;;;;;;;2.40;2.20;;;;;;;25.87;39.81;101859.41;4199332;28;20045;-72
2022/06/20 04:57:29;;;;;;;2.22;1.90;;;;;;;25.91;40.00;101860.50;4199809;28;20414;-73
2022/06/20 04:59:32;;;;;;;1.90;1.80;;;;;;;25.86;39.54;101852.97;4198867;28;20044;-73
2022/06/20 05:01:38;;;;;;;2.35;2.00;;;;;;;25.90;39.76;101865.28;4198703;28;20056;-73
2022/06/20 05:03:44;;;;;;;2.38;2.17;;;;;;;25.91;39.70;101868.94;4199854;28;20040;-73
2022/06/20 05:05:49;;;;;;;2.00;1.80;;;;;;;25.90;39.70;101870.06;4198582;28;20052;-73
2022/06/20 05:07:51;;;;;;;1.95;1.67;;;;;;;25.87;39.77;101848.22;4197669;28;20040;-73
2022/06/20 05:09:56;;;;;;;3.00;1.98;;;;;;;25.88;39.93;101850.72;4198073;28;20067;-72
2022/06/20 05:12:07;;;;;;;2.35;2.00;;;;;;;25.88;39.99;101849.88;4198943;28;20071;-73
2022/06/20 05:14:27;;;;;;;1.80;1.70;;;;;;;25.89;39.95;101846.78;4198464;28;20098;-73
2022/06/20 05:16:36;;;;;;;1.92;1.77;;;;;;;25.90;39.76;101836.41;4198825;28;20416;-72
2022/06/20 05:18:42;;;;;;;1.75;1.60;;;;;;;25.89;40.00;101840.31;4198437;28;20078;-73
2022/06/20 05:20:46;;;;;;;2.03;1.83;;;;;;;25.88;39.65;101847.06;4198665;28;20036;-72
2022/06/20 05:23:11;;;;;;;2.50;2.08;;;;;;;25.87;40.04;101851.00;4198513;28;20471;-73
2022/06/20 05:25:21;;;;;;;2.33;1.83;;;;;;;25.89;39.95;101863.63;4197980;28;20036;-71
2022/06/20 05:27:29;;;;;;;1.90;1.67;;;;;;;25.90;39.97;101868.09;4198333;28;20040;-73
2022/06/20 05:29:34;;;;;;;2.58;2.17;;;;;;;25.90;39.99;101858.84;4198478;28;20037;-73
2022/06/20 05:31:42;;;;;;;2.25;2.00;;;;;;;25.83;39.68;101843.19;4199955;28;20538;-74
2022/06/20 05:33:57;;;;;;;2.08;1.85;;;;;;;25.88;39.72;101849.88;4199296;28;20037;-73
2022/06/20 05:36:15;;;;;;;2.10;1.90;;;;;;;25.87;39.66;101848.22;4198314;28;20048;-74
2022/06/20 05:38:22;;;;;;;2.20;2.00;;;;;;;25.89;40.00;101854.34;4198035;28;20090;-73
2022/06/20 05:40:37;;;;;;;2.40;2.03;;;;;;;25.88;39.85;101849.88;4209207;28;20093;-74
2022/06/20 05:42:38;;;;;;;2.00;1.80;;;;;;;25.87;40.09;101859.41;4215192;28;20052;-71
2022/06/20 05:44:40;;;;;;;1.92;1.75;;;;;;;25.87;39.88;101857.44;4215343;28;20501;-71
2022/06/20 05:47:05;;;;;;;2.10;1.75;;;;;;;25.85;39.87;101854.13;4215114;28;20028;-72
2022/06/20 05:49:14;;;;;;;1.73;1.63;;;;;;;25.88;39.98;101855.47;4208831;28;20044;-72
2022/06/20 05:51:19;;;;;;;1.90;1.55;;;;;;;25.77;39.86;101841.56;4215192;28;20093;-72
2022/06/20 05:53:26;;;;;;;;;;;;;;;25.86;39.82;101864.19;4215664;28;20036;-71
2022/06/20 05:55:51;;;;;;;1.58;1.45;;;;;;;25.85;39.67;101854.94;4211404;28;20033;-72
2022/06/20 05:57:56;;;;;;;2.03;1.80;;;;;;;25.91;39.68;101858.53;4197944;28;20102;-72
2022/06/20 06:00:03;;;;;;;3.10;2.08;;;;;;;25.90;39.51;101848.47;4198049;28;20113;-72
2022/06/20 06:02:25;;;;;;;2.08;1.90;;;;;;;25.89;39.98;101845.94;4198456;28;20032;-72
2022/06/20 06:04:34;;;;;;;1.73;1.63;;;;;;;25.87;40.01;101848.22;4198256;28;20530;-72
2022/06/20 06:06:49;;;;;;;1.75;1.65;;;;;;;25.87;39.77;101856.63;4198375;28;20028;-72
2022/06/20 06:09:04;;;;;;;2.35;1.90;;;;;;;25.85;39.66;101848.50;4198329;28;20037;-72
2022/06/20 06:11:37;;;;;;;2.40;1.90;;;;;;;25.85;39.96;101854.94;4198054;28;20041;-72
2022/06/20 06:13:56;;;;;;;2.10;1.90;;;;;;;25.87;39.63;101848.22;4197955;28;20093;-73
2022/06/20 06:18:31;;;;;;;2.20;2.00;;;;;;;25.79;39.83;101846.84;4197692;28;20522;-72
2022/06/20 06:20:32;;;;;;;;;;;;;;;25.83;39.95;101865.59;4198521;28;20101;-73
2022/06/20 06:22:39;;;;;;;2.20;1.98;;;;;;;25.88;39.65;101855.47;4198384;28;19912;-72
2022/06/20 06:24:44;;;;;;;2.22;2.03;;;;;;;25.88;39.69;101850.72;4198336;28;20090;-71
2022/06/20 06:26:48;;;;;;;2.17;1.95;;;;;;;25.86;39.89;101858.59;4197809;28;20045;-72
2022/06/20 06:28:54;;;;;;;2.15;1.80;;;;;;;25.86;39.92;101858.59;4198171;28;20381;-72
2022/06/20 06:31:14;;;;;;;1.70;1.60;;;;;;;25.75;39.77;101849.41;4197724;28;20044;-72
2022/06/20 06:33:39;;;;;;;2.53;1.92;;;;;;;25.84;39.71;101866.44;4197831;28;20040;-72
2022/06/20 06:35:52;;;;;;;2.22;1.98;;;;;;;25.84;39.94;101855.22;4197769;28;20145;-72
2022/06/20 06:38:01;;;;;;;2.33;1.88;;;;;;;25.83;39.91;101862.81;4197474;28;20037;-72
2022/06/20 06:40:07;;;;;;;2.17;1.98;;;;;;;25.83;40.01;101860.00;4197735;28;20102;-72
2022/06/20 06:42:13;;;;;;;1.77;1.63;;;;;;;25.75;39.66;101852.19;4197690;28;20044;-72
2022/06/20 06:44:22;;;;;;;1.90;1.75;;;;;;;25.82;40.04;101863.94;4197846;28;20098;-72
2022/06/20 06:46:38;;;;;;;2.30;2.10;;;;;;;25.81;39.62;101867.03;4198133;28;20044;-72
2022/06/20 06:48:57;;;;;;;1.92;1.80;;;;;;;25.80;39.75;101870.97;4197358;28;20442;-72
2022/06/20 06:51:07;;;;;;;2.22;1.85;;;;;;;25.81;39.82;101873.47;4199409;28;20048;-72
2022/06/20 06:53:17;;;;;;;2.13;1.95;;;;;;;25.80;39.99;101866.22;4202196;28;20075;-72
2022/06/20 06:55:22;;;;;;;2.08;1.83;;;;;;;25.80;39.78;101860.59;4199481;28;20052;-72
2022/06/20 06:57:39;;;;;;;2.03;1.83;;;;;;;25.80;39.81;101866.22;4207194;28;20126;-72
2022/06/20 07:00:05;;;;;;;2.08;1.88;;;;;;;25.75;40.07;101857.81;4218623;28;20037;-69
2022/06/20 07:02:19;;;;;;;2.78;2.03;;;;;;;25.79;39.67;101864.50;4218413;28;20044;-72
2022/06/20 07:04:27;;;;;;;1.70;1.60;;;;;;;25.81;40.09;101867.88;4217087;28;20040;-72
2022/06/20 07:06:51;;;;;;;2.10;1.80;;;;;;;25.80;40.04;101865.38;4221458;28;20059;-72
2022/06/20 07:09:06;;;;;;;3.53;2.05;;;;;;;25.79;39.77;101861.72;4215931;28;20086;-71
2022/06/20 07:11:23;;;;;;;2.05;1.88;;;;;;;25.80;39.67;101859.78;4216753;28;20066;-73
2022/06/20 07:13:52;;;;;;;2.08;1.60;;;;;;;25.80;39.84;101859.78;4216961;28;20029;-71
2022/06/20 07:15:57;;;;;;;2.10;1.90;;;;;;;25.80;39.69;101859.78;4216989;28;20037;-71
2022/06/20 07:18:09;;;;;;;2.10;1.90;;;;;;;25.81;39.69;101864.25;4217102;28;20167;-70
2022/06/20 07:20:12;;;;;;;2.00;1.67;;;;;;;25.79;39.70;101858.91;4206558;28;20032;-72
2022/06/20 07:22:16;;;;;;;1.90;1.70;;;;;;;25.75;39.91;101854.13;4202736;28;20422;-71
2022/06/20 07:24:22;;;;;;;1.67;1.58;;;;;;;25.69;39.83;101836.53;4201652;28;20090;-72
2022/06/20 07:26:28;;;;;;;1.85;1.67;;;;;;;25.79;39.68;101863.69;4199871;28;20037;-72
2022/06/20 07:28:48;;;;;;;2.03;1.80;;;;;;;25.77;40.16;101860.34;4200415;28;20044;-71
2022/06/20 07:30:59;;;;;;;2.58;1.70;;;;;;;25.75;39.76;101857.81;4201007;28;20059;-72
2022/06/20 07:33:42;;;;;;;2.00;1.80;;;;;;;25.69;39.84;101841.31;4200099;28;20078;-71
2022/06/20 07:35:56;;;;;;;2.28;2.08;;;;;;;25.72;39.89;101858.38;4177009;28;20106;-72
2022/06/20 07:38:06;;;;;;;1.92;1.75;;;;;;;25.70;39.82;101838.19;4200352;28;20098;-72
2022/06/20 07:40:33;;;;;;;2.92;1.77;;;;;;;25.77;39.76;101849.97;4200522;28;20101;-71
2022/06/20 07:42:56;;;;;;;2.03;1.75;;;;;;;25.78;39.86;101851.63;4199118;28;20040;-72
2022/06/20 07:45:08;;;;;;;2.28;2.05;;;;;;;25.79;39.83;101856.09;4200774;28;20036;-72
2022/06/20 07:47:34;;;;;;;2.33;1.98;;;;;;;25.77;40.11;101861.19;4199911;28;20090;-71
2022/06/20 07:49:40;;;;;;;2.15;1.85;;;;;;;25.78;40.00;101865.66;4200217;28;20530;-72
2022/06/20 07:51:46;;;;;;;1.98;1.70;;;;;;;25.78;40.03;101871.25;4200245;28;20505;-72
2022/06/20 07:54:01;;;;;;;1.63;1.42;;;;;;;25.76;39.93;101870.72;4200081;28;20115;-72
2022/06/20 07:56:18;;;;;;;1.52;1.42;;;;;;;25.76;39.75;101881.94;4200258;28;20044;-71
2022/06/20 07:58:27;;;;;;;2.20;1.80;;;;;;;25.78;39.94;101884.44;4198874;28;20130;-71
2022/06/20 08:00:39;;;;;;;1.80;1.70;;;;;;;25.77;40.11;101878.00;4200100;28;20165;-72
2022/06/20 08:03:10;;;;;;;1.80;1.70;;;;;;;25.76;39.99;101884.75;4199878;28;20044;-71
2022/06/20 08:05:16;;;;;;;2.28;1.90;;;;;;;25.76;39.80;101881.94;4183899;28;20109;-72
2022/06/20 08:07:25;;;;;;;2.17;1.80;;;;;;;25.76;39.57;101884.75;4199621;28;20036;-72
2022/06/20 08:09:45;;;;;;;1.90;1.70;;;;;;;25.75;40.13;101888.66;4199695;28;20086;-72
2022/06/20 08:11:49;;;;;;;2.53;1.85;;;;;;;25.76;39.92;101895.13;4200191;28;20094;-72
2022/06/20 08:13:53;;;;;;;2.03;1.80;;;;;;;25.73;39.77;101885.28;4199788;28;20040;-72
2022/06/20 08:15:58;;;;;;;2.53;1.60;;;;;;;25.75;39.88;101891.44;4199143;28;20036;-71
2022/06/20 08:18:00;;;;;;;2.22;1.85;;;;;;;25.74;39.70;101889.75;4199456;28;20090;-72
2022/06/20 08:20:05;;;;;;;2.15;1.50;;;;;;;25.75;39.94;101884.97;4199950;28;20040;-71
2022/06/20 08:22:14;;;;;;;;;;;;;;;25.73;39.98;101893.69;4200191;28;20041;-73
2022/06/20 08:24:43;;;;;;;2.08;1.70;;;;;;;25.73;39.92;101885.28;4200186;28;19913;-72
2022/06/20 08:26:52;;;;;;;2.75;1.77;;;;;;;25.78;39.62;101902.09;4196626;28;20044;-72
2022/06/20 08:28:59;;;;;;;3.22;1.63;;;;;;;25.68;40.18;101890.94;4198796;28;20110;-72
2022/06/20 08:31:09;;;;;;;2.20;2.00;;;;;;;25.75;39.91;101907.41;4199319;28;20040;-71
2022/06/20 08:33:16;;;;;;;2.70;1.60;;;;;;;25.76;39.72;101909.97;4199376;28;20118;-72
2022/06/20 08:35:51;;;;;;;1.92;1.75;;;;;;;25.73;39.96;101913.31;4199217;28;20117;-72
2022/06/20 08:38:08;;;;;;;2.00;1.70;;;;;;;25.73;39.82;101916.13;4199057;28;20036;-72
2022/06/20 08:40:22;;;;;;;2.25;1.92;;;;;;;25.74;39.86;101923.41;4204948;28;20036;-71
2022/06/20 08:42:41;;;;;;;1.70;1.60;;;;;;;25.71;40.01;101918.38;4199512;28;20102;-71
2022/06/20 08:45:04;;;;;;;1.70;1.52;;;;;;;25.74;39.95;101916.94;4199075;28;20048;-71
2022/06/20 08:47:32;;;;;;;1.70;1.60;;;;;;;25.72;39.83;101920.06;4199084;28;20365;-72
2022/06/20 08:49:54;;;;;;;2.25;2.05;;;;;;;25.71;39.86;101924.00;4199817;28;20090;-72
2022/06/20 08:52:39;;;;;;;1.60;1.50;;;;;;;25.71;39.97;101929.59;4198119;28;20036;-72
2022/06/20 08:54:59;;;;;;;2.67;1.80;;;;;;;25.70;40.07;101921.47;4199659;28;20424;-72
2022/06/20 08:57:22;;;;;;;1.92;1.70;;;;;;;25.70;39.90;101930.72;4198495;28;20545;-72
2022/06/20 08:59:57;;;;;;;2.40;1.63;;;;;;;25.70;40.01;101921.47;4199182;28;20094;-71
2022/06/20 09:02:36;;;;;;;2.17;1.67;;;;;;;25.69;39.97;101934.66;4199253;28;20492;-71
2022/06/20 09:04:58;;;;;;;2.05;1.73;;;;;;;25.69;40.01;101929.03;4198901;28;20086;-72
2022/06/20 09:07:41;;;;;;;1.95;1.75;;;;;;;25.69;39.99;101942.22;4198782;28;20041;-72
2022/06/20 09:10:04;;;;;;;1.67;1.58;;;;;;;25.71;39.68;101932.41;4193998;28;20043;-72
2022/06/20 09:12:25;;;;;;;2.33;1.83;;;;;;;25.68;40.12;101941.38;4216060;28;20044;-72
2022/06/20 09:14:51;;;;;;;2.00;1.80;;;;;;;25.68;39.76;101952.59;4215344;28;20101;-71
2022/06/20 09:17:30;;;;;;;1.90;1.60;;;;;;;25.68;40.19;101955.41;4215592;28;20113;-72
2022/06/20 09:19:46;;;;;;;1.85;1.75;;;;;;;25.69;39.98;101953.44;4215047;28;20097;-72
2022/06/20 09:22:06;;;;;;;2.03;1.60;;;;;;;25.69;39.99;101957.06;4214759;28;20036;-72
2022/06/20 09:24:32;;;;;;;1.73;1.60;;;;;;;25.67;39.72;101958.50;4215597;28;20044;-72
2022/06/20 09:27:29;;;;;;;2.38;2.00;;;;;;;25.59;39.74;101949.56;4216338;28;20040;-72
2022/06/20 09:29:55;;;;;;;1.73;1.60;;;;;;;25.68;39.97;101963.81;4179795;28;20041;-72
2022/06/20 09:32:23;;;;;;;1.85;1.75;;;;;;;25.68;39.69;101972.22;4179807;28;20067;-71
2022/06/20 09:34:33;;;;;;;2.72;1.77;;;;;;;25.69;40.01;101971.09;4191749;28;20036;-71
2022/06/20 09:37:06;;;;;;;3.17;2.03;;;;;;;25.68;39.87;101975.03;4215362;28;20556;-72
2022/06/20 09:39:35;;;;;;;1.48;1.35;;;;;;;25.68;39.81;101971.38;4214742;28;20101;-72
2022/06/20 09:41:50;;;;;;;2.08;1.70;;;;;;;25.66;39.96;101971.69;4202616;28;20036;-72
2022/06/20 09:44:25;;;;;;;1.83;1.70;;;;;;;25.67;39.82;101978.97;4198599;28;20094;-72
2022/06/20 09:46:48;;;;;;;2.15;1.92;;;;;;;25.67;40.13;101967.75;4198533;28;20533;-73
2022/06/20 09:48:55;;;;;;;1.92;1.83;;;;;;;25.67;39.85;101973.34;4197420;28;20045;-72
2022/06/20 09:51:10;;;;;;;2.42;1.80;;;;;;;25.58;39.83;101959.09;4198126;28;20110;-73
2022/06/20 09:53:46;;;;;;;2.30;2.08;;;;;;;25.65;40.00;101970.00;4198145;28;20049;-72
2022/06/20 09:55:53;;;;;;;3.28;1.75;;;;;;;25.67;39.68;101978.13;4197615;28;20094;-73
2022/06/20 09:58:13;;;;;;;2.25;2.03;;;;;;;25.65;39.94;101978.41;4197618;28;20040;-72
2022/06/20 10:00:50;;;;;;;2.78;1.67;;;;;;;25.67;39.70;101978.13;4197934;28;20450;-73
2022/06/20 10:03:17;;;;;;;2.42;1.90;;;;;;;25.62;39.91;101973.38;4197586;28;20048;-73
2022/06/20 10:05:46;;;;;;;2.00;1.80;;;;;;;25.66;39.88;101980.09;4197373;28;20070;-73
2022/06/20 10:07:58;;;;;;;1.70;1.60;;;;;;;25.68;39.81;101991.84;4206803;28;20098;-72
2022/06/20 10:10:15;;;;;;;2.22;2.00;;;;;;;25.64;39.76;101987.94;4214304;28;20097;-73
2022/06/20 10:12:34;;;;;;;2.25;2.05;;;;;;;25.66;39.95;101996.91;4214318;28;20039;-73
2022/06/20 10:15:05;;;;;;;2.03;1.80;;;;;;;25.60;39.84;101990.47;4214440;28;20085;-72
2022/06/20 10:17:19;;;;;;;1.95;1.80;;;;;;;25.67;39.76;101997.75;4214415;28;20471;-72
2022/06/20 10:19:29;;;;;;;1.70;1.60;;;;;;;25.58;39.73;101986.28;4214650;28;20481;-72
2022/06/20 10:22:08;;;;;;;2.20;1.75;;;;;;;25.64;39.61;102007.56;4214875;28;20036;-73
2022/06/20 10:24:37;;;;;;;1.95;1.70;;;;;;;25.62;39.83;102009.81;4215010;28;20360;-72